Time,TemperatureF,DewpointF,PressureIn,WindDirection,WindDirectionDegrees,WindSpeedMPH,WindSpeedGustMPH,Humidity,HourlyPrecipIn,Conditions,Clouds,dailyrainin,SoftwareType,DateUTC
2013-01-19 00:12:00,32.9,26.5,30.04,WSW,247,2.2,-999.0,77,-99.99,,,0.00,Acu-Link.com,2013-01-19 05:12:00,
2013-01-19 00:28:00,33.1,26.7,30.04,South,180,2.2,-999.0,77,-99.99,,,0.00,Acu-Link.com,2013-01-19 05:28:00,
2013-01-19 00:43:00,33.1,26.7,30.04,SW,225,2.2,-999.0,77,-99.99,,,0.00,Acu-Link.com,2013-01-19 05:43:00,
2013-01-19 00:58:00,33.1,26.4,30.03,South,180,4.7,-999.0,76,-99.99,,,0.00,Acu-Link.com,2013-01-19 05:58:00,
2013-01-19 01:13:00,33.4,26.3,30.03,SW,225,2.7,-999.0,75,-99.99,,,0.00,Acu-Link.com,2013-01-19 06:13:00,
2013-01-19 01:29:00,33.8,26.1,30.03,WSW,247,4.2,-999.0,73,-99.99,,,0.00,Acu-Link.com,2013-01-19 06:29:00,
2013-01-19 01:44:00,33.4,26.0,30.03,SSW,202,5.8,-999.0,74,-99.99,,,0.00,Acu-Link.com,2013-01-19 06:44:00,
2013-01-19 01:59:00,33.6,25.9,30.03,South,180,6.3,-999.0,73,-99.99,,,0.00,Acu-Link.com,2013-01-19 06:59:00,
2013-01-19 02:15:00,33.6,25.6,30.04,SSW,202,2.7,-999.0,72,-99.99,,,0.00,Acu-Link.com,2013-01-19 07:15:00,
2013-01-19 02:30:00,33.8,25.4,30.03,South,180,4.2,-999.0,71,-99.99,,,0.00,Acu-Link.com,2013-01-19 07:30:00,
2013-01-19 02:45:00,33.6,25.6,30.03,SE,135,4.2,-999.0,72,-99.99,,,0.00,Acu-Link.com,2013-01-19 07:45:00,
2013-01-19 03:01:00,33.8,25.1,30.03,SW,225,6.3,-999.0,70,-99.99,,,0.00,Acu-Link.com,2013-01-19 08:01:00,
2013-01-19 03:16:00,33.8,25.4,30.02,SE,135,5.3,-999.0,71,-99.99,,,0.00,Acu-Link.com,2013-01-19 08:16:00,
2013-01-19 03:31:00,33.8,25.4,30.03,South,180,3.2,-999.0,71,-99.99,,,0.00,Acu-Link.com,2013-01-19 08:31:00,
2013-01-19 03:46:00,33.3,25.3,30.02,SSW,202,3.7,-999.0,72,-99.99,,,0.00,Acu-Link.com,2013-01-19 08:46:00,
2013-01-19 04:02:00,33.4,25.4,30.03,WSW,247,3.7,-999.0,72,-99.99,,,0.00,Acu-Link.com,2013-01-19 09:02:00,
2013-01-19 04:36:00,33.4,25.4,30.02,SSE,157,3.7,-999.0,72,-99.99,,,0.00,Acu-Link.com,2013-01-19 09:36:00,
2013-01-19 05:06:00,33.6,25.6,30.01,South,180,5.3,-999.0,72,-99.99,,,0.00,Acu-Link.com,2013-01-19 10:06:00,
2013-01-19 05:21:00,33.6,25.6,30.00,SSE,157,5.3,-999.0,72,-99.99,,,0.00,Acu-Link.com,2013-01-19 10:21:00,
2013-01-19 05:37:00,33.6,25.2,30.00,WSW,247,3.2,-999.0,71,-99.99,,,0.00,Acu-Link.com,2013-01-19 10:37:00,
2013-01-19 05:52:00,33.6,25.2,30.00,ESE,112,4.2,-999.0,71,-99.99,,,0.00,Acu-Link.com,2013-01-19 10:52:00,
2013-01-19 06:07:00,33.6,24.9,30.00,South,180,7.3,-999.0,70,-99.99,,,0.00,Acu-Link.com,2013-01-19 11:07:00,
2013-01-19 07:57:00,33.8,25.1,29.99,SW,225,4.2,-999.0,70,-99.99,,,0.00,Acu-Link.com,2013-01-19 12:57:00,
2013-01-19 08:12:00,34.0,25.6,29.99,South,180,2.7,-999.0,71,-99.99,,,0.00,Acu-Link.com,2013-01-19 13:12:00,
2013-01-19 08:28:00,34.7,25.9,30.00,SSW,202,3.7,-999.0,70,-99.99,,,0.00,Acu-Link.com,2013-01-19 13:28:00,
2013-01-19 08:43:00,35.6,26.5,29.99,WSW,247,3.7,-999.0,69,-99.99,,,0.00,Acu-Link.com,2013-01-19 13:43:00,
2013-01-19 08:58:00,36.9,26.6,30.00,SW,225,6.3,-999.0,66,-99.99,,,0.00,Acu-Link.com,2013-01-19 13:58:00,
2013-01-19 09:14:00,38.1,27.4,30.00,SW,225,5.3,-999.0,65,-99.99,,,0.00,Acu-Link.com,2013-01-19 14:14:00,
2013-01-19 09:29:00,39.6,28.1,30.00,West,270,4.2,-999.0,63,-99.99,,,0.00,Acu-Link.com,2013-01-19 14:29:00,
2013-01-19 09:44:00,41.2,28.4,30.00,SW,225,5.3,-999.0,60,-99.99,,,0.00,Acu-Link.com,2013-01-19 14:44:00,
2013-01-19 10:00:00,42.4,29.5,29.99,WNW,292,6.3,-999.0,60,-99.99,,,0.00,Acu-Link.com,2013-01-19 15:00:00,
2013-01-19 10:15:00,43.9,29.7,29.99,WSW,247,4.2,-999.0,57,-99.99,,,0.00,Acu-Link.com,2013-01-19 15:15:00,
2013-01-19 10:30:00,45.0,29.8,29.99,West,270,9.9,-999.0,55,-99.99,,,0.00,Acu-Link.com,2013-01-19 15:30:00,
2013-01-19 10:45:00,46.2,30.5,29.99,SW,225,4.2,-999.0,54,-99.99,,,0.00,Acu-Link.com,2013-01-19 15:45:00,
2013-01-19 11:01:00,47.5,30.8,29.98,WNW,292,5.3,-999.0,52,-99.99,,,0.00,Acu-Link.com,2013-01-19 16:01:00,
2013-01-19 11:16:00,48.7,29.4,29.98,South,180,5.8,-999.0,47,-99.99,,,0.00,Acu-Link.com,2013-01-19 16:16:00,
2013-01-19 11:31:00,48.2,28.4,29.97,West,270,6.8,-999.0,46,-99.99,,,0.00,Acu-Link.com,2013-01-19 16:31:00,
2013-01-19 11:47:00,49.3,29.4,29.95,South,180,9.4,-999.0,46,-99.99,,,0.00,Acu-Link.com,2013-01-19 16:47:00,
2013-01-19 12:02:00,49.5,29.1,29.94,ENE,67,7.3,-999.0,45,-99.99,,,0.00,Acu-Link.com,2013-01-19 17:02:00,
2013-01-19 12:17:00,50.0,29.0,29.93,SW,225,7.3,-999.0,44,-99.99,,,0.00,Acu-Link.com,2013-01-19 17:17:00,
2013-01-19 12:33:00,50.4,28.8,29.91,NW,315,6.8,-999.0,43,-99.99,,,0.00,Acu-Link.com,2013-01-19 17:33:00,
2013-01-19 12:48:00,50.4,28.2,29.90,SW,225,6.3,-999.0,42,-99.99,,,0.00,Acu-Link.com,2013-01-19 17:48:00,
2013-01-19 13:03:00,51.1,28.2,29.88,SW,225,9.4,-999.0,41,-99.99,,,0.00,Acu-Link.com,2013-01-19 18:03:00,
2013-01-19 13:34:00,52.2,28.6,29.87,WSW,247,7.8,-999.0,40,-99.99,,,0.00,Acu-Link.com,2013-01-19 18:34:00,
2013-01-19 14:05:00,52.3,28.1,29.85,SSW,202,5.3,-999.0,39,-99.99,,,0.00,Acu-Link.com,2013-01-19 19:05:00,
2013-01-19 14:50:00,52.9,29.2,29.83,SSW,202,4.7,-999.0,40,-99.99,,,0.00,Acu-Link.com,2013-01-19 19:50:00,
2013-01-19 15:06:00,52.9,28.6,29.82,SE,135,9.9,-999.0,39,-99.99,,,0.00,Acu-Link.com,2013-01-19 20:06:00,
2013-01-19 15:51:00,52.9,28.0,29.79,West,270,4.7,-999.0,38,-99.99,,,0.00,Acu-Link.com,2013-01-19 20:51:00,
2013-01-19 16:07:00,52.7,27.8,29.79,ESE,112,6.8,-999.0,38,-99.99,,,0.00,Acu-Link.com,2013-01-19 21:07:00,
2013-01-19 16:22:00,52.5,27.6,29.79,SW,225,5.8,-999.0,38,-99.99,,,0.00,Acu-Link.com,2013-01-19 21:22:00,
2013-01-19 17:08:00,51.4,27.3,29.77,SW,225,6.3,-999.0,39,-99.99,,,0.00,Acu-Link.com,2013-01-19 22:08:00,
2013-01-19 17:23:00,50.5,27.7,29.78,SSW,202,6.8,-999.0,41,-99.99,,,0.00,Acu-Link.com,2013-01-19 22:23:00,
2013-01-19 17:39:00,49.8,27.6,29.77,SSW,202,7.8,-999.0,42,-99.99,,,0.00,Acu-Link.com,2013-01-19 22:39:00,
2013-01-19 18:25:00,48.0,27.1,29.76,SSE,157,4.7,-999.0,44,-99.99,,,0.00,Acu-Link.com,2013-01-19 23:25:00,
2013-01-19 18:55:00,47.5,26.7,29.76,SSE,157,5.8,-999.0,44,-99.99,,,0.00,Acu-Link.com,2013-01-19 23:55:00,
2013-01-19 19:11:00,46.9,26.1,29.75,SW,225,7.3,-999.0,44,-99.99,,,0.00,Acu-Link.com,2013-01-20 00:11:00,
2013-01-19 19:26:00,47.3,26.5,29.75,South,180,8.9,-999.0,44,-99.99,,,0.00,Acu-Link.com,2013-01-20 00:26:00,
2013-01-19 20:12:00,45.7,27.1,29.76,West,270,6.3,-999.0,48,-99.99,,,0.00,Acu-Link.com,2013-01-20 01:12:00,
2013-01-19 20:27:00,45.5,27.0,29.76,WSW,247,4.7,-999.0,48,-99.99,,,0.00,Acu-Link.com,2013-01-20 01:27:00,
2013-01-19 20:58:00,45.1,27.6,29.75,SSW,202,3.7,-999.0,50,-99.99,,,0.00,Acu-Link.com,2013-01-20 01:58:00,
2013-01-19 21:28:00,44.4,27.9,29.75,West,270,5.8,-999.0,52,-99.99,,,0.00,Acu-Link.com,2013-01-20 02:28:00,
2013-01-19 21:59:00,44.2,28.6,29.76,WSW,247,3.2,-999.0,54,-99.99,,,0.00,Acu-Link.com,2013-01-20 02:59:00,
2013-01-19 22:14:00,45.0,28.9,29.76,SW,225,6.3,-999.0,53,-99.99,,,0.00,Acu-Link.com,2013-01-20 03:14:00,
2013-01-19 22:29:00,45.1,29.5,29.76,WSW,247,5.3,-999.0,54,-99.99,,,0.00,Acu-Link.com,2013-01-20 03:29:00,
2013-01-19 23:00:00,45.0,29.8,29.76,SSW,202,7.8,-999.0,55,-99.99,,,0.00,Acu-Link.com,2013-01-20 04:00:00,
2013-01-19 23:46:00,45.0,29.8,29.76,WSW,247,9.4,-999.0,55,-99.99,,,0.00,Acu-Link.com,2013-01-20 04:46:00,